createdAt,value
2019-01-26T00:02:16.725Z,19.62
2019-01-26T00:12:20.762Z,18.70
2019-01-26T00:22:24.731Z,18.80
2019-01-26T00:32:28.871Z,21.55
2019-01-26T00:42:32.887Z,19.95
2019-01-26T00:52:36.848Z,20.02
2019-01-26T01:02:40.835Z,20.40
2019-01-26T01:12:44.794Z,20.37
2019-01-26T01:22:49.715Z,20.55
2019-01-26T01:32:54.012Z,19.32
2019-01-26T01:42:57.954Z,19.60
2019-01-26T01:53:02.007Z,19.90
2019-01-26T02:03:05.952Z,19.35
2019-01-26T02:13:09.912Z,21.20
2019-01-26T02:23:13.875Z,20.08
2019-01-26T02:33:17.833Z,20.32
2019-01-26T02:43:21.816Z,20.15
2019-01-26T02:53:25.788Z,20.32
2019-01-26T03:03:29.730Z,19.98
2019-01-26T03:13:33.628Z,19.40
2019-01-26T03:23:37.648Z,20.60
2019-01-26T03:33:41.604Z,19.87
2019-01-26T03:43:45.617Z,21.07
2019-01-26T03:53:49.588Z,21.48
2019-01-26T04:03:53.538Z,22.77
2019-01-26T04:13:57.507Z,22.17
2019-01-26T04:24:01.548Z,21.48
2019-01-26T04:34:05.495Z,22.52
2019-01-26T04:44:09.481Z,21.85
2019-01-26T04:54:13.449Z,22.45
2019-01-26T05:04:17.391Z,21.30
2019-01-26T05:14:21.347Z,21.82
2019-01-26T05:24:25.305Z,21.37
2019-01-26T05:34:29.262Z,21.85
2019-01-26T05:44:33.207Z,21.25
2019-01-26T05:54:37.155Z,21.48
2019-01-26T06:04:41.098Z,21.73
2019-01-26T06:14:44.978Z,20.57
2019-01-26T06:24:48.959Z,20.52
2019-01-26T06:34:52.910Z,19.05
2019-01-26T06:44:56.886Z,20.43
2019-01-26T06:55:00.869Z,24.98
2019-01-26T07:05:08.603Z,46.63
2019-01-26T07:15:13.146Z,39.73
2019-01-26T07:25:17.116Z,34.20
2019-01-26T07:35:21.843Z,29.48
